Soaring Guidance
Issued by NWS Reno, NV

Home | Current Version | Previous Version | Text Only | Print | Product List | Glossary On
Versions: 1 2 3 4 5 6 7 8
000
UXUS97 KREV 221449
SRGREV

SOARING FORECAST
NATIONAL WEATHER SERVICE - RENO NV
700 AM PST SUN JAN 22 2017

THIS SOARING FORECAST IS FOR THE EASTERN SIERRA AND WESTERN NEVADA
WITH SPECIFIC INDICES FOR THE GREATER RENO AREA.

THIS FORECAST IS PREPARED DAILY BY 700 AM AND IS NOT UPDATED.

FOR CURRENT FLIGHT CONDITIONS...FORECASTS...AND ADVISORIES...ACCESS
YOUR LOCAL BRIEFING OUTLET OR FLIGHT SERVICE STATION.

*******************************************************************
FORECASTED LOCAL INDICES FOR RENO:        TODAY     YESTERDAY
FORECASTED MAX TEMP AT RENO (DEG F).....     35          45
FORECASTED TRIGGER TEMPERATURE (DEG F)..     35          35
   EXCEEDED YESTERDAY BY 055 AM PST
FORECASTED MAXIMUM ALTITUDE (FT MSL)....  11500       11500
FORECASTED SOARING INDEX (FPM)..........    555         555
FORECASTED K-INDEX.........VALID 18Z....     27          25
FORECASTED K-INDEX.........VALID 00Z....     28          18
FORECASTED LIFTED INDEX....VALID 18Z....      2           1
FORECASTED LIFTED INDEX....VALID 00Z....      1           5

AFTERNOON WINDS ALOFT FORECAST
MSL (FT) WIND/TEMP
9000  2330/-09
10000 2236/-10
12000 2248/-14
14000 2249/-18
16000 2250/-23
18000 2352/-28
24000 7300/-35
30000 7349/-40
34000 7343/-44
39000 7314/-46

SLIDE MOUNTAIN DATA:
     DATE       TIME     TEMP  DEWPT   RH         WIND (MPH)
                        (F)   (F)           | DIR  SPEED GUST
2017-01-22    05:50      22    22     97    | 305    NA   NA
2017-01-22    05:30      22    22     97    | 305    NA   NA
2017-01-22    05:20      22    21     96    | 305    NA   NA
2017-01-22    05:00      21    21     96    | 305    NA   NA

RENO TAF FORECAST:
KRNO 221438Z 2215/2312 18011KT 1SM -SN SCT005 BKN015 OVC025
      WS020/24040KT
      TEMPO 2215/2218 1/2SM SN OVC010
     FM221800 20016G24KT 3SM -SN SCT015 BKN020 OVC030
      WS020/24040KT
     FM230000 19008KT 1SM -SN BKN010 OVC020
     FM231000 22008KT 5SM -SHSN BKN020 OVC030

CARSON CITY TAF FORECAST:
KCXP 221144Z 2212/2312 14010KT 1SM -SN OVC005 WS020/24040KT
     FM221800 20014G24KT 3SM -SN SCT008 BKN015 OVC020
      WS020/24040KT
     FM230000 19008KT 1SM -SN BKN008 OVC015
     FM231100 22008KT 5SM -SHSN BKN015 OVC025

OUTLOOK FOR THE RENO-CARSON CITY-MINDEN AREA:
.MONDAY...MOSTLY CLOUDY WITH ISOLATED SNOW SHOWERS. HIGHS 30 TO
35. SOUTHWEST WINDS AROUND 10 MPH.

SUNRISE AND SUNSET
JANUARY 22 2017.......SUNRISE   714 AM PST   SUNSET   508 PM PST
JANUARY 23 2017.......SUNRISE   713 AM PST   SUNSET   509 PM PST



USA.gov is the U.S. government's official web portal to all federal, state and local government web resources and services.